Time;durP1;ratioP1;P1;durP2;ratioP2;P2;SDS_P1;SDS_P2;PMS_P1;PMS_P2;Temp;Humidity;BMP_temperature;BMP_pressure;BME280_temperature;BME280_humidity;BME280_pressure;Samples;Min_cycle;Max_cycle;Signal;HPM_P1;HPM_P2
2023/05/07 00:02:23;;;;;;;2.70;1.90;;;;;;;-128.00;-1.00;-1.00;18885;293;7504724;-31
2023/05/07 00:04:50;;;;;;;2.70;2.20;;;;;;;-128.00;-1.00;-1.00;18913;294;7504875;-34
2023/05/07 00:07:15;;;;;;;2.90;2.60;;;;;;;-128.00;-1.00;-1.00;18508;293;7505850;-34
2023/05/07 00:09:42;;;;;;;2.60;2.40;;;;;;;-128.00;-1.00;-1.00;18882;346;7505074;-31
2023/05/07 00:12:08;;;;;;;10.00;3.30;;;;;;;-128.00;-1.00;-1.00;18919;293;7504104;-33
2023/05/07 00:14:34;;;;;;;5.00;3.80;;;;;;;-128.00;-1.00;-1.00;18880;293;7504764;-31
2023/05/07 00:17:00;;;;;;;4.70;4.20;;;;;;;-128.00;-1.00;-1.00;18900;293;7504601;-30
2023/05/07 00:19:26;;;;;;;7.60;5.10;;;;;;;-128.00;-1.00;-1.00;18898;293;7505222;-34
2023/05/07 00:21:53;;;;;;;11.90;7.20;;;;;;;-128.00;-1.00;-1.00;18918;293;7506097;-31
2023/05/07 00:24:19;;;;;;;5.30;4.80;;;;;;;-128.00;-1.00;-1.00;18473;318;7506715;-34
2023/05/07 00:26:45;;;;;;;6.20;5.60;;;;;;;-128.00;-1.00;-1.00;18481;282;7504368;-34
2023/05/07 00:29:11;;;;;;;4.70;4.30;;;;;;;-128.00;-1.00;-1.00;18850;313;7504897;-31
2023/05/07 00:31:37;;;;;;;7.40;6.80;;;;;;;-128.00;-1.00;-1.00;18924;286;7504947;-34
2023/05/07 00:34:03;;;;;;;6.40;5.60;;;;;;;-128.00;-1.00;-1.00;18909;346;7504491;-34
2023/05/07 00:36:30;;;;;;;13.40;6.50;;;;;;;-128.00;-1.00;-1.00;18877;293;7505205;-30
2023/05/07 00:38:56;;;;;;;5.10;4.70;;;;;;;-128.00;-1.00;-1.00;18499;293;7504987;-31
2023/05/07 00:41:22;;;;;;;4.90;4.50;;;;;;;-128.00;-1.00;-1.00;18503;293;7504507;-33
2023/05/07 00:43:48;;;;;;;4.00;3.40;;;;;;;-128.00;-1.00;-1.00;18537;293;7504148;-31
2023/05/07 00:46:13;;;;;;;5.30;4.70;;;;;;;-128.00;-1.00;-1.00;18476;334;7506100;-31
2023/05/07 00:48:40;;;;;;;14.80;4.30;;;;;;;-128.00;-1.00;-1.00;18911;294;7506358;-34
2023/05/07 00:51:07;;;;;;;5.20;4.50;;;;;;;-128.00;-1.00;-1.00;18893;286;7504746;-32
2023/05/07 00:53:32;;;;;;;3.40;2.20;;;;;;;-128.00;-1.00;-1.00;18498;294;7504557;-31
2023/05/07 00:56:00;;;;;;;3.40;2.70;;;;;;;-128.00;-1.00;-1.00;18893;305;7505138;-30
2023/05/07 00:58:26;;;;;;;3.60;2.40;;;;;;;-128.00;-1.00;-1.00;18491;294;7504305;-34
2023/05/07 01:00:51;;;;;;;2.40;2.20;;;;;;;-128.00;-1.00;-1.00;18493;294;7504819;-31
2023/05/07 01:03:17;;;;;;;2.70;2.50;;;;;;;-128.00;-1.00;-1.00;18473;294;7504213;-34
2023/05/07 01:05:44;;;;;;;2.70;2.00;;;;;;;-128.00;-1.00;-1.00;18469;294;7504786;-34
2023/05/07 01:08:10;;;;;;;3.50;3.20;;;;;;;-128.00;-1.00;-1.00;18486;294;7504597;-31
2023/05/07 01:10:36;;;;;;;17.70;2.90;;;;;;;-128.00;-1.00;-1.00;18490;294;7505996;-31
2023/05/07 01:13:02;;;;;;;9.20;2.50;;;;;;;-128.00;-1.00;-1.00;18887;294;7504508;-31
2023/05/07 01:15:28;;;;;;;4.00;3.30;;;;;;;-128.00;-1.00;-1.00;18881;294;7504913;-34
2023/05/07 01:17:56;;;;;;;7.90;4.30;;;;;;;-128.00;-1.00;-1.00;18924;294;7506411;-32
2023/05/07 01:20:22;;;;;;;3.60;3.30;;;;;;;-128.00;-1.00;-1.00;18460;294;7504658;-31
2023/05/07 01:22:48;;;;;;;5.00;4.00;;;;;;;-128.00;-1.00;-1.00;18494;294;7504877;-32
2023/05/07 01:25:16;;;;;;;5.70;4.20;;;;;;;-128.00;-1.00;-1.00;18461;295;7504928;-31
2023/05/07 01:27:42;;;;;;;8.40;5.20;;;;;;;-128.00;-1.00;-1.00;18477;294;7505822;-31
2023/05/07 01:30:08;;;;;;;4.80;4.30;;;;;;;-128.00;-1.00;-1.00;18474;294;7506259;-31
2023/05/07 01:32:48;;;;;;;6.80;6.10;;;;;;;-128.00;-1.00;-1.00;18494;294;7504589;-32
2023/05/07 01:35:18;;;;;;;5.30;4.50;;;;;;;-128.00;-1.00;-1.00;18501;294;7504491;-34
2023/05/07 01:37:43;;;;;;;3.80;2.60;;;;;;;-128.00;-1.00;-1.00;18477;346;7504990;-31
2023/05/07 01:40:10;;;;;;;8.00;2.20;;;;;;;-128.00;-1.00;-1.00;18495;294;7504758;-34
2023/05/07 01:42:35;;;;;;;2.80;2.20;;;;;;;-128.00;-1.00;-1.00;18485;294;7504188;-34
2023/05/07 01:45:02;;;;;;;2.80;1.90;;;;;;;-128.00;-1.00;-1.00;18481;294;7505132;-31
2023/05/07 01:47:28;;;;;;;2.60;1.60;;;;;;;-128.00;-1.00;-1.00;18471;317;7504504;-32
2023/05/07 01:49:53;;;;;;;1.50;1.20;;;;;;;-128.00;-1.00;-1.00;18488;294;7507437;-31
2023/05/07 01:52:19;;;;;;;1.60;1.40;;;;;;;-128.00;-1.00;-1.00;18476;294;7505157;-33
2023/05/07 01:54:47;;;;;;;1.90;1.50;;;;;;;-128.00;-1.00;-1.00;18479;294;7504507;-32
2023/05/07 01:57:13;;;;;;;2.70;2.50;;;;;;;-128.00;-1.00;-1.00;18501;294;7505008;-32
2023/05/07 01:59:38;;;;;;;3.10;1.90;;;;;;;-128.00;-1.00;-1.00;18474;294;7504389;-32
2023/05/07 02:02:04;;;;;;;3.10;2.60;;;;;;;-128.00;-1.00;-1.00;18474;346;7505153;-35
2023/05/07 02:04:30;;;;;;;3.30;2.60;;;;;;;-128.00;-1.00;-1.00;18844;300;7504696;-35
2023/05/07 02:06:56;;;;;;;2.80;2.40;;;;;;;-128.00;-1.00;-1.00;18872;294;7505714;-32
2023/05/07 02:09:23;;;;;;;8.20;2.50;;;;;;;-128.00;-1.00;-1.00;18890;294;7504752;-35
2023/05/07 02:11:49;;;;;;;4.40;2.20;;;;;;;-128.00;-1.00;-1.00;18879;294;7504406;-35
2023/05/07 02:14:15;;;;;;;3.70;2.50;;;;;;;-128.00;-1.00;-1.00;18868;294;7505747;-35
2023/05/07 02:16:42;;;;;;;2.50;2.00;;;;;;;-128.00;-1.00;-1.00;18894;317;7503972;-35
2023/05/07 02:19:08;;;;;;;6.10;2.20;;;;;;;-128.00;-1.00;-1.00;18866;294;7504443;-35
2023/05/07 02:21:34;;;;;;;3.80;3.00;;;;;;;-128.00;-1.00;-1.00;18894;294;7505134;-33
2023/05/07 02:24:00;;;;;;;6.00;2.30;;;;;;;-128.00;-1.00;-1.00;18901;321;7504838;-33
2023/05/07 02:26:26;;;;;;;5.50;3.90;;;;;;;-128.00;-1.00;-1.00;18873;295;7506134;-34
2023/05/07 02:28:53;;;;;;;3.70;2.60;;;;;;;-128.00;-1.00;-1.00;18893;294;7504503;-34
2023/05/07 02:31:19;;;;;;;8.70;3.20;;;;;;;-128.00;-1.00;-1.00;18518;294;7506032;-33
2023/05/07 02:33:45;;;;;;;4.00;2.90;;;;;;;-128.00;-1.00;-1.00;18470;294;7505981;-33
2023/05/07 02:36:11;;;;;;;3.70;2.30;;;;;;;-128.00;-1.00;-1.00;18522;294;7506027;-34
2023/05/07 02:38:37;;;;;;;2.20;1.40;;;;;;;-128.00;-1.00;-1.00;18491;294;7505076;-34
2023/05/07 02:41:02;;;;;;;6.90;3.60;;;;;;;-128.00;-1.00;-1.00;18465;294;7504205;-31
2023/05/07 02:43:28;;;;;;;3.40;2.20;;;;;;;-128.00;-1.00;-1.00;18452;294;7504148;-34
2023/05/07 02:46:07;;;;;;;5.50;2.80;;;;;;;-128.00;-1.00;-1.00;18478;294;7504589;-31
2023/05/07 02:48:33;;;;;;;2.70;1.60;;;;;;;-128.00;-1.00;-1.00;18486;346;7504853;-31
2023/05/07 02:50:59;;;;;;;8.80;1.50;;;;;;;-128.00;-1.00;-1.00;18471;294;7504938;-32
2023/05/07 02:53:26;;;;;;;2.60;2.20;;;;;;;-128.00;-1.00;-1.00;18476;294;7504663;-34
2023/05/07 02:55:53;;;;;;;2.90;1.40;;;;;;;-128.00;-1.00;-1.00;18488;334;7504810;-34
2023/05/07 02:58:19;;;;;;;2.40;1.60;;;;;;;-128.00;-1.00;-1.00;18467;294;7506210;-31
2023/05/07 03:00:45;;;;;;;4.80;2.50;;;;;;;-128.00;-1.00;-1.00;18507;294;7504886;-32
2023/05/07 03:03:10;;;;;;;1.50;1.30;;;;;;;-128.00;-1.00;-1.00;18480;297;7505958;-32
2023/05/07 03:05:37;;;;;;;3.20;1.90;;;;;;;-128.00;-1.00;-1.00;18493;294;7506196;-31
2023/05/07 03:08:03;;;;;;;2.40;1.50;;;;;;;-128.00;-1.00;-1.00;18466;294;7506193;-31
2023/05/07 03:10:30;;;;;;;1.00;0.90;;;;;;;-128.00;-1.00;-1.00;18492;294;7506653;-34
2023/05/07 03:12:56;;;;;;;2.60;1.90;;;;;;;-128.00;-1.00;-1.00;18500;294;7505197;-34
2023/05/07 03:15:21;;;;;;;2.30;1.90;;;;;;;-128.00;-1.00;-1.00;18487;303;7504615;-32
2023/05/07 03:17:48;;;;;;;1.70;1.40;;;;;;;-128.00;-1.00;-1.00;18458;302;7504606;-34
2023/05/07 03:20:13;;;;;;;2.10;1.90;;;;;;;-128.00;-1.00;-1.00;18480;303;7504573;-31
2023/05/07 03:22:39;;;;;;;1.80;1.50;;;;;;;-128.00;-1.00;-1.00;18497;294;7505060;-31
2023/05/07 03:25:06;;;;;;;1.90;1.70;;;;;;;-128.00;-1.00;-1.00;18483;346;7504377;-31
2023/05/07 03:27:31;;;;;;;1.80;1.70;;;;;;;-128.00;-1.00;-1.00;18520;294;7504240;-31
2023/05/07 03:29:57;;;;;;;5.30;3.10;;;;;;;-128.00;-1.00;-1.00;18891;294;7505969;-34
2023/05/07 03:32:24;;;;;;;2.40;2.10;;;;;;;-128.00;-1.00;-1.00;18867;288;7506049;-33
2023/05/07 03:34:50;;;;;;;5.60;2.50;;;;;;;-128.00;-1.00;-1.00;18480;305;7504274;-31
2023/05/07 03:37:16;;;;;;;2.10;1.90;;;;;;;-128.00;-1.00;-1.00;18543;338;7505857;-30
2023/05/07 03:39:41;;;;;;;2.00;1.70;;;;;;;-128.00;-1.00;-1.00;18500;294;7504126;-30
2023/05/07 03:42:07;;;;;;;1.90;1.50;;;;;;;-128.00;-1.00;-1.00;18903;294;7505983;-33
2023/05/07 03:44:33;;;;;;;4.40;2.00;;;;;;;-128.00;-1.00;-1.00;18896;294;7506052;-33
2023/05/07 03:47:00;;;;;;;8.40;1.60;;;;;;;-128.00;-1.00;-1.00;18881;294;7505975;-30
2023/05/07 03:49:26;;;;;;;1.50;1.20;;;;;;;-128.00;-1.00;-1.00;18886;346;7505320;-31
2023/05/07 03:51:52;;;;;;;2.00;1.10;;;;;;;-128.00;-1.00;-1.00;18917;346;7504720;-34
2023/05/07 03:54:19;;;;;;;1.80;1.10;;;;;;;-128.00;-1.00;-1.00;18883;294;7504200;-33
2023/05/07 03:56:45;;;;;;;4.60;1.30;;;;;;;-128.00;-1.00;-1.00;18502;317;7505064;-32
2023/05/07 03:59:13;;;;;;;2.50;1.60;;;;;;;-128.00;-1.00;-1.00;18542;294;7505082;-34
2023/05/07 04:01:38;;;;;;;2.90;1.30;;;;;;;-128.00;-1.00;-1.00;18479;334;7504706;-32
2023/05/07 04:04:04;;;;;;;1.30;0.70;;;;;;;-128.00;-1.00;-1.00;18471;321;7505018;-34
2023/05/07 04:06:30;;;;;;;4.40;2.40;;;;;;;-128.00;-1.00;-1.00;18521;294;7504844;-34
2023/05/07 04:08:56;;;;;;;8.80;2.30;;;;;;;-128.00;-1.00;-1.00;18482;294;7504509;-34
2023/05/07 04:11:22;;;;;;;4.30;3.10;;;;;;;-128.00;-1.00;-1.00;18497;294;7504399;-32
2023/05/07 04:13:48;;;;;;;1.40;1.00;;;;;;;-128.00;-1.00;-1.00;18489;298;7504724;-34
2023/05/07 04:16:13;;;;;;;3.00;1.80;;;;;;;-128.00;-1.00;-1.00;18479;294;7504759;-31
2023/05/07 04:18:39;;;;;;;3.10;2.30;;;;;;;-128.00;-1.00;-1.00;18493;288;7505012;-30
2023/05/07 04:21:05;;;;;;;2.60;2.10;;;;;;;-128.00;-1.00;-1.00;18481;338;7504707;-32
2023/05/07 04:23:31;;;;;;;4.50;2.70;;;;;;;-128.00;-1.00;-1.00;18500;290;7505989;-31
2023/05/07 04:25:57;;;;;;;5.20;1.60;;;;;;;-128.00;-1.00;-1.00;18489;294;7505196;-35
2023/05/07 04:28:23;;;;;;;3.60;2.60;;;;;;;-128.00;-1.00;-1.00;18461;294;7505180;-32
2023/05/07 04:30:49;;;;;;;3.30;2.60;;;;;;;-128.00;-1.00;-1.00;18474;294;7504142;-35
2023/05/07 04:33:16;;;;;;;1.20;1.10;;;;;;;-128.00;-1.00;-1.00;18467;294;7505257;-34
2023/05/07 04:35:42;;;;;;;3.90;3.00;;;;;;;-128.00;-1.00;-1.00;18476;294;7504823;-32
2023/05/07 04:38:08;;;;;;;3.00;2.70;;;;;;;-128.00;-1.00;-1.00;18471;294;7504614;-32
2023/05/07 05:18:29;;;;;;;3.50;2.80;;;;;;;-101.33;19.20;19977.05;19559;295;8047420;-30
2023/05/07 05:20:55;;;;;;;5.70;2.80;;;;;;;-128.00;-1.00;-1.00;18597;330;7505016;-32
2023/05/07 05:23:21;;;;;;;7.20;4.70;;;;;;;-128.00;-1.00;-1.00;18889;293;7505227;-30
2023/05/07 05:25:48;;;;;;;4.60;2.30;;;;;;;-128.00;-1.00;-1.00;18500;293;7506087;-30
2023/05/07 05:28:14;;;;;;;2.20;2.00;;;;;;;-128.00;-1.00;-1.00;18912;334;7505393;-34
2023/05/07 05:30:41;;;;;;;2.60;1.90;;;;;;;-128.00;-1.00;-1.00;18928;293;7504294;-31
2023/05/07 05:33:07;;;;;;;2.10;1.60;;;;;;;-128.00;-1.00;-1.00;18928;293;7504194;-33
2023/05/07 05:35:34;;;;;;;2.80;2.30;;;;;;;-128.00;-1.00;-1.00;18884;286;7505192;-33
2023/05/07 05:38:00;;;;;;;2.10;1.80;;;;;;;-128.00;-1.00;-1.00;18507;294;7504429;-31
2023/05/07 05:40:26;;;;;;;2.70;2.20;;;;;;;-128.00;-1.00;-1.00;18496;285;7505041;-34
2023/05/07 05:42:52;;;;;;;3.50;2.00;;;;;;;-128.00;-1.00;-1.00;18486;302;7504820;-33
2023/05/07 05:45:18;;;;;;;6.10;2.00;;;;;;;-128.00;-1.00;-1.00;18523;293;7504385;-34
2023/05/07 05:47:43;;;;;;;1.10;0.90;;;;;;;-128.00;-1.00;-1.00;18464;294;7504939;-34
2023/05/07 05:50:09;;;;;;;1.30;1.10;;;;;;;-128.00;-1.00;-1.00;18897;293;7504157;-34
2023/05/07 05:52:36;;;;;;;1.50;1.00;;;;;;;-128.00;-1.00;-1.00;18898;293;7504386;-34
2023/05/07 05:55:02;;;;;;;2.20;1.20;;;;;;;-128.00;-1.00;-1.00;18894;293;7504873;-34
2023/05/07 05:57:28;;;;;;;2.40;1.30;;;;;;;-128.00;-1.00;-1.00;18902;293;7504831;-32
2023/05/07 05:59:55;;;;;;;2.80;2.40;;;;;;;-128.00;-1.00;-1.00;18918;293;7504833;-33
2023/05/07 06:02:21;;;;;;;2.80;1.90;;;;;;;-128.00;-1.00;-1.00;18914;293;7504292;-31
2023/05/07 06:04:47;;;;;;;3.70;2.40;;;;;;;-128.00;-1.00;-1.00;18903;293;7504416;-34
2023/05/07 06:07:13;;;;;;;3.80;1.90;;;;;;;-128.00;-1.00;-1.00;18940;293;7505407;-32
2023/05/07 06:09:40;;;;;;;2.60;1.60;;;;;;;-128.00;-1.00;-1.00;18914;293;7504328;-30
2023/05/07 06:12:06;;;;;;;3.80;1.60;;;;;;;-128.00;-1.00;-1.00;18925;293;7504209;-32
2023/05/07 06:14:32;;;;;;;2.90;1.60;;;;;;;-128.00;-1.00;-1.00;18868;288;7504309;-34
2023/05/07 06:16:59;;;;;;;3.00;2.40;;;;;;;-128.00;-1.00;-1.00;18946;293;7505009;-34
2023/05/07 06:19:26;;;;;;;4.80;2.20;;;;;;;-128.00;-1.00;-1.00;18913;293;7504242;-33
2023/05/07 06:21:53;;;;;;;2.30;1.40;;;;;;;-128.00;-1.00;-1.00;18476;294;7505071;-34
2023/05/07 06:24:19;;;;;;;2.40;2.20;;;;;;;-128.00;-1.00;-1.00;18477;294;7506821;-33
2023/05/07 06:26:45;;;;;;;3.40;2.00;;;;;;;-128.00;-1.00;-1.00;18512;293;7506062;-31
2023/05/07 06:29:10;;;;;;;6.10;3.30;;;;;;;-128.00;-1.00;-1.00;18474;293;7504662;-31
2023/05/07 06:31:37;;;;;;;10.10;2.90;;;;;;;-128.00;-1.00;-1.00;18494;294;7506487;-34
2023/05/07 06:34:02;;;;;;;3.20;2.60;;;;;;;-128.00;-1.00;-1.00;18490;293;7504388;-31
2023/05/07 06:36:28;;;;;;;5.70;4.00;;;;;;;-128.00;-1.00;-1.00;18489;293;7505268;-32
2023/05/07 06:38:55;;;;;;;20.20;9.70;;;;;;;-128.00;-1.00;-1.00;18469;286;7504803;-31
2023/05/07 06:41:21;;;;;;;12.60;7.00;;;;;;;-128.00;-1.00;-1.00;18475;294;7505105;-31
2023/05/07 06:43:47;;;;;;;10.80;9.80;;;;;;;-128.00;-1.00;-1.00;18499;293;7505019;-34
2023/05/07 06:46:13;;;;;;;5.20;4.20;;;;;;;-128.00;-1.00;-1.00;18491;294;7504936;-32
2023/05/07 06:48:38;;;;;;;9.80;7.80;;;;;;;-128.00;-1.00;-1.00;18504;286;7504711;-31
2023/05/07 06:51:04;;;;;;;6.80;6.20;;;;;;;-128.00;-1.00;-1.00;18494;294;7504526;-34
2023/05/07 06:53:30;;;;;;;11.90;7.90;;;;;;;-128.00;-1.00;-1.00;18477;296;7504759;-31
2023/05/07 06:55:56;;;;;;;12.50;7.80;;;;;;;-128.00;-1.00;-1.00;18500;293;7504664;-31
2023/05/07 06:58:22;;;;;;;13.10;5.90;;;;;;;-128.00;-1.00;-1.00;18485;293;7505071;-32
2023/05/07 07:00:48;;;;;;;4.30;3.00;;;;;;;-128.00;-1.00;-1.00;18492;283;7504950;-30
2023/05/07 07:03:15;;;;;;;11.40;7.60;;;;;;;-128.00;-1.00;-1.00;18481;294;7505033;-32
2023/05/07 07:05:41;;;;;;;6.10;4.10;;;;;;;-128.00;-1.00;-1.00;18521;294;7504326;-32
2023/05/07 07:08:07;;;;;;;7.80;4.80;;;;;;;-128.00;-1.00;-1.00;18522;293;7504865;-32
2023/05/07 07:10:33;;;;;;;8.10;5.30;;;;;;;-128.00;-1.00;-1.00;18490;293;7504995;-34
2023/05/07 07:12:59;;;;;;;13.90;5.40;;;;;;;-128.00;-1.00;-1.00;18512;293;7506072;-34
2023/05/07 07:15:26;;;;;;;6.40;5.10;;;;;;;-128.00;-1.00;-1.00;18489;294;7504038;-33
2023/05/07 07:17:51;;;;;;;7.10;6.00;;;;;;;-128.00;-1.00;-1.00;18505;293;7505085;-34
2023/05/07 07:20:17;;;;;;;5.70;5.20;;;;;;;-128.00;-1.00;-1.00;18481;334;7504945;-34
2023/05/07 07:22:43;;;;;;;6.60;4.90;;;;;;;-128.00;-1.00;-1.00;18488;294;7505221;-34
2023/05/07 07:25:09;;;;;;;5.30;3.00;;;;;;;-128.00;-1.00;-1.00;18903;293;7504771;-34
2023/05/07 07:27:36;;;;;;;7.10;4.10;;;;;;;-128.00;-1.00;-1.00;18489;293;7504402;-30
2023/05/07 07:30:02;;;;;;;12.90;6.20;;;;;;;-128.00;-1.00;-1.00;18495;293;7505295;-33
2023/05/07 07:32:28;;;;;;;14.00;8.70;;;;;;;-128.00;-1.00;-1.00;18467;295;7505505;-31
2023/05/07 07:34:53;;;;;;;8.30;6.10;;;;;;;-128.00;-1.00;-1.00;18509;294;7504298;-35
2023/05/07 07:37:20;;;;;;;9.70;6.10;;;;;;;-128.00;-1.00;-1.00;18917;294;7505046;-35
2023/05/07 07:39:46;;;;;;;12.30;7.80;;;;;;;-128.00;-1.00;-1.00;18869;335;7505539;-31
2023/05/07 07:42:12;;;;;;;6.50;3.30;;;;;;;-128.00;-1.00;-1.00;18893;293;7505220;-32
2023/05/07 07:44:39;;;;;;;4.30;3.90;;;;;;;-128.00;-1.00;-1.00;18905;293;7504426;-34
2023/05/07 07:47:05;;;;;;;4.00;3.30;;;;;;;-128.00;-1.00;-1.00;18906;338;7505191;-32
2023/05/07 07:49:32;;;;;;;6.00;4.00;;;;;;;-128.00;-1.00;-1.00;18905;302;7505308;-31
2023/05/07 07:51:59;;;;;;;7.70;3.40;;;;;;;-128.00;-1.00;-1.00;18920;293;7506160;-34
2023/05/07 07:54:25;;;;;;;3.20;2.90;;;;;;;-128.00;-1.00;-1.00;18470;345;7504965;-34
2023/05/07 07:56:54;;;;;;;8.80;5.70;;;;;;;-128.00;-1.00;-1.00;18499;293;7505117;-34
2023/05/07 07:59:20;;;;;;;6.20;5.00;;;;;;;-128.00;-1.00;-1.00;18500;293;7506337;-31
2023/05/07 08:01:45;;;;;;;8.80;5.60;;;;;;;-128.00;-1.00;-1.00;18490;294;7504614;-35
2023/05/07 08:04:11;;;;;;;7.90;3.70;;;;;;;-128.00;-1.00;-1.00;18504;294;7505061;-34
2023/05/07 08:06:37;;;;;;;8.50;5.90;;;;;;;-128.00;-1.00;-1.00;18471;318;7504358;-34
2023/05/07 08:09:03;;;;;;;6.90;6.20;;;;;;;-128.00;-1.00;-1.00;18473;293;7505008;-32
2023/05/07 08:11:29;;;;;;;7.30;3.70;;;;;;;-128.00;-1.00;-1.00;18492;293;7504469;-31
2023/05/07 08:13:55;;;;;;;7.10;6.40;;;;;;;-128.00;-1.00;-1.00;18468;296;7506011;-31
2023/05/07 08:16:20;;;;;;;7.10;6.10;;;;;;;-128.00;-1.00;-1.00;18500;294;7504624;-31
2023/05/07 08:18:46;;;;;;;9.90;5.10;;;;;;;-128.00;-1.00;-1.00;18482;294;7504587;-31
2023/05/07 08:21:12;;;;;;;9.80;7.30;;;;;;;-128.00;-1.00;-1.00;18884;294;7504887;-35
2023/05/07 08:23:39;;;;;;;5.60;4.50;;;;;;;-128.00;-1.00;-1.00;18484;345;7504209;-31
2023/05/07 08:26:04;;;;;;;6.00;4.10;;;;;;;-128.00;-1.00;-1.00;18478;294;7504711;-35
2023/05/07 08:28:31;;;;;;;4.80;4.30;;;;;;;-128.00;-1.00;-1.00;18906;293;7504263;-31
2023/05/07 08:30:59;;;;;;;5.20;4.00;;;;;;;-128.00;-1.00;-1.00;18918;294;7504799;-33
2023/05/07 08:33:25;;;;;;;5.60;4.30;;;;;;;-128.00;-1.00;-1.00;18497;293;7504663;-34
2023/05/07 08:35:51;;;;;;;5.20;3.50;;;;;;;-128.00;-1.00;-1.00;18493;309;7504680;-32
2023/05/07 08:38:17;;;;;;;4.70;3.50;;;;;;;-128.00;-1.00;-1.00;18887;305;7505174;-32
2023/05/07 08:40:43;;;;;;;5.60;5.10;;;;;;;-128.00;-1.00;-1.00;18875;293;7505097;-31
2023/05/07 08:43:12;;;;;;;7.90;5.20;;;;;;;-128.00;-1.00;-1.00;18893;293;7504540;-32
2023/05/07 08:45:38;;;;;;;5.50;5.00;;;;;;;-128.00;-1.00;-1.00;18506;293;7505078;-32
2023/05/07 08:48:05;;;;;;;4.80;4.40;;;;;;;-128.00;-1.00;-1.00;18507;294;7505666;-35
2023/05/07 08:50:31;;;;;;;5.00;4.00;;;;;;;-128.00;-1.00;-1.00;18472;345;7504620;-35
2023/05/07 08:52:57;;;;;;;4.90;4.30;;;;;;;-128.00;-1.00;-1.00;18913;294;7505156;-32
2023/05/07 08:55:24;;;;;;;4.80;4.40;;;;;;;-128.00;-1.00;-1.00;18888;294;7505193;-32
2023/05/07 08:57:50;;;;;;;8.10;3.80;;;;;;;-128.00;-1.00;-1.00;18481;294;7504289;-33
2023/05/07 09:00:16;;;;;;;2.60;2.30;;;;;;;-128.00;-1.00;-1.00;18499;293;7504142;-35
2023/05/07 09:02:42;;;;;;;3.80;3.40;;;;;;;-128.00;-1.00;-1.00;18472;295;7506455;-35
2023/05/07 09:05:08;;;;;;;10.20;4.80;;;;;;;-128.00;-1.00;-1.00;18501;294;7504598;-34
2023/05/07 09:07:34;;;;;;;18.70;7.50;;;;;;;-128.00;-1.00;-1.00;18500;295;7504728;-32
2023/05/07 09:10:04;;;;;;;8.70;4.80;;;;;;;-128.00;-1.00;-1.00;18506;293;7504602;-31
2023/05/07 09:12:30;;;;;;;6.80;4.90;;;;;;;-128.00;-1.00;-1.00;18479;294;7506088;-34
2023/05/07 09:14:56;;;;;;;4.40;3.90;;;;;;;-128.00;-1.00;-1.00;18491;317;7506168;-35
2023/05/07 09:17:22;;;;;;;3.10;2.70;;;;;;;-128.00;-1.00;-1.00;18488;293;7504606;-34
2023/05/07 09:19:48;;;;;;;3.70;3.20;;;;;;;-128.00;-1.00;-1.00;18488;293;7506087;-33
2023/05/07 09:22:14;;;;;;;3.10;2.80;;;;;;;-128.00;-1.00;-1.00;18501;294;7506168;-34
2023/05/07 09:24:40;;;;;;;8.20;5.40;;;;;;;-128.00;-1.00;-1.00;18501;293;7504847;-31
2023/05/07 09:27:05;;;;;;;3.10;2.60;;;;;;;-128.00;-1.00;-1.00;18482;294;7505338;-30
2023/05/07 09:29:37;;;;;;;2.30;1.90;;;;;;;-128.00;-1.00;-1.00;18486;293;7504352;-34
2023/05/07 09:32:05;;;;;;;2.40;2.20;;;;;;;-128.00;-1.00;-1.00;18503;293;7506272;-31
2023/05/07 09:34:31;;;;;;;4.10;3.10;;;;;;;-128.00;-1.00;-1.00;18495;293;7505394;-31
2023/05/07 09:36:59;;;;;;;5.00;3.10;;;;;;;-128.00;-1.00;-1.00;18488;294;7505034;-31
2023/05/07 09:39:24;;;;;;;3.20;1.90;;;;;;;-128.00;-1.00;-1.00;18482;293;7505907;-34
2023/05/07 09:41:52;;;;;;;4.20;2.40;;;;;;;-128.00;-1.00;-1.00;18473;293;7504321;-31
2023/05/07 09:44:17;;;;;;;2.50;1.90;;;;;;;-128.00;-1.00;-1.00;18471;294;7504778;-31
2023/05/07 09:46:44;;;;;;;18.80;4.20;;;;;;;-128.00;-1.00;-1.00;18486;293;7506987;-35
2023/05/07 09:49:17;;;;;;;2.90;2.40;;;;;;;-128.00;-1.00;-1.00;18475;294;7504824;-35
2023/05/07 09:51:49;;;;;;;4.80;3.10;;;;;;;-128.00;-1.00;-1.00;18466;285;7504492;-35
2023/05/07 09:54:15;;;;;;;;;;;;;;;-128.00;-1.00;-1.00;18480;294;7506193;-35
2023/05/07 09:56:41;;;;;;;3.80;2.40;;;;;;;-128.00;-1.00;-1.00;18501;294;7504827;-35
2023/05/07 09:59:07;;;;;;;7.00;5.00;;;;;;;-128.00;-1.00;-1.00;18511;286;7504612;-32
2023/05/07 10:01:33;;;;;;;14.30;6.30;;;;;;;-128.00;-1.00;-1.00;18472;294;7506314;-33
2023/05/07 10:03:59;;;;;;;11.20;4.70;;;;;;;-128.00;-1.00;-1.00;18909;286;7505603;-35
2023/05/07 10:06:25;;;;;;;4.90;3.10;;;;;;;-128.00;-1.00;-1.00;18878;293;7505156;-32
2023/05/07 10:08:52;;;;;;;8.20;5.50;;;;;;;-128.00;-1.00;-1.00;18900;293;7504687;-34
2023/05/07 10:11:18;;;;;;;5.50;3.80;;;;;;;-128.00;-1.00;-1.00;18891;286;7505809;-34
2023/05/07 10:13:44;;;;;;;8.00;4.70;;;;;;;-128.00;-1.00;-1.00;18899;293;7504377;-33
2023/05/07 10:16:10;;;;;;;6.20;3.30;;;;;;;-128.00;-1.00;-1.00;18871;294;7505328;-30
2023/05/07 10:18:37;;;;;;;4.40;3.30;;;;;;;-128.00;-1.00;-1.00;18894;294;7505079;-31
2023/05/07 10:21:08;;;;;;;5.00;2.30;;;;;;;-128.00;-1.00;-1.00;18900;294;7504493;-34
2023/05/07 10:23:34;;;;;;;5.90;1.20;;;;;;;-128.00;-1.00;-1.00;18518;293;7506242;-34
2023/05/07 10:26:04;;;;;;;3.50;3.00;;;;;;;-128.00;-1.00;-1.00;18496;293;7504484;-34
2023/05/07 10:28:31;;;;;;;4.90;3.20;;;;;;;-128.00;-1.00;-1.00;18532;293;7504651;-34
2023/05/07 10:31:12;;;;;;;8.50;4.60;;;;;;;-128.00;-1.00;-1.00;18491;293;7504653;-32
2023/05/07 10:33:38;;;;;;;2.80;2.20;;;;;;;-128.00;-1.00;-1.00;18476;294;7505317;-32
2023/05/07 10:36:04;;;;;;;5.70;2.40;;;;;;;-128.00;-1.00;-1.00;18496;301;7504709;-32
2023/05/07 10:38:30;;;;;;;3.80;2.20;;;;;;;-128.00;-1.00;-1.00;18465;294;7504426;-35
2023/05/07 10:40:55;;;;;;;3.20;2.50;;;;;;;-128.00;-1.00;-1.00;18478;282;7506458;-30
2023/05/07 10:43:21;;;;;;;4.40;2.90;;;;;;;-128.00;-1.00;-1.00;18475;293;7504288;-34
2023/05/07 10:46:11;;;;;;;5.40;4.00;;;;;;;-128.00;-1.00;-1.00;18872;293;7505149;-30
2023/05/07 10:49:06;;;;;;;2.70;2.50;;;;;;;-128.00;-1.00;-1.00;18522;293;7506244;-30
2023/05/07 10:51:32;;;;;;;3.20;2.80;;;;;;;-128.00;-1.00;-1.00;18518;294;7506666;-30
2023/05/07 10:54:18;;;;;;;2.70;2.00;;;;;;;-128.00;-1.00;-1.00;18457;288;7506710;-31
2023/05/07 10:56:44;;;;;;;3.30;2.10;;;;;;;-128.00;-1.00;-1.00;18500;293;7504714;-30
2023/05/07 10:59:31;;;;;;;2.50;1.90;;;;;;;-128.00;-1.00;-1.00;18497;286;7504896;-30
2023/05/07 11:02:05;;;;;;;2.80;2.40;;;;;;;-128.00;-1.00;-1.00;18497;293;7504407;-30
2023/05/07 11:04:34;;;;;;;3.70;2.40;;;;;;;-128.00;-1.00;-1.00;18494;294;7504282;-34
2023/05/07 11:47:50;;;;;;;15.50;8.50;;;;;;;-100.86;17.60;20035.13;98297;295;1544632;-31
2023/05/07 11:50:17;;;;;;;4.20;3.70;;;;;;;-128.00;-1.00;-1.00;78285;296;7503380;-30
2023/05/07 11:52:52;;;;;;;4.40;3.50;;;;;;;-128.00;-1.00;-1.00;18446;297;7505914;-31
2023/05/07 11:55:18;;;;;;;4.60;3.20;;;;;;;-128.00;-1.00;-1.00;18485;347;7506273;-31
2023/05/07 11:57:44;;;;;;;4.10;3.40;;;;;;;-128.00;-1.00;-1.00;18515;343;7505951;-34
2023/05/07 12:00:11;;;;;;;6.80;5.40;;;;;;;-128.00;-1.00;-1.00;18870;288;7504513;-31
2023/05/07 12:02:36;;;;;;;7.20;6.20;;;;;;;-128.00;-1.00;-1.00;18477;307;7504737;-31
2023/05/07 12:05:03;;;;;;;16.50;12.40;;;;;;;-128.00;-1.00;-1.00;18857;347;7505178;-34
2023/05/07 12:07:29;;;;;;;7.20;5.20;;;;;;;-128.00;-1.00;-1.00;18475;294;7506272;-31
2023/05/07 12:09:54;;;;;;;7.30;5.60;;;;;;;-128.00;-1.00;-1.00;18483;347;7504979;-30
2023/05/07 12:12:20;;;;;;;14.50;4.50;;;;;;;-128.00;-1.00;-1.00;18482;294;7505129;-33
2023/05/07 12:14:46;;;;;;;7.30;5.70;;;;;;;-128.00;-1.00;-1.00;18883;297;7504939;-32
2023/05/07 12:17:13;;;;;;;6.60;5.80;;;;;;;-128.00;-1.00;-1.00;18897;294;7504527;-31
2023/05/07 12:19:40;;;;;;;5.80;4.60;;;;;;;-128.00;-1.00;-1.00;18478;294;7504427;-35
2023/05/07 12:22:07;;;;;;;4.80;4.30;;;;;;;-128.00;-1.00;-1.00;18497;347;7504620;-31
2023/05/07 12:24:45;;;;;;;5.60;5.00;;;;;;;-128.00;-1.00;-1.00;18473;335;7504820;-35
2023/05/07 12:27:11;;;;;;;7.20;5.30;;;;;;;-128.00;-1.00;-1.00;18480;294;7506375;-35
2023/05/07 12:29:39;;;;;;;6.90;5.90;;;;;;;-128.00;-1.00;-1.00;18897;295;7505652;-34
2023/05/07 12:32:06;;;;;;;7.60;6.00;;;;;;;-128.00;-1.00;-1.00;18490;296;7506357;-34
2023/05/07 12:34:32;;;;;;;5.40;4.80;;;;;;;-128.00;-1.00;-1.00;18506;294;7506621;-31
2023/05/07 12:36:57;;;;;;;4.90;4.00;;;;;;;-128.00;-1.00;-1.00;18462;295;7504620;-32
2023/05/07 12:39:24;;;;;;;4.50;3.90;;;;;;;-128.00;-1.00;-1.00;18909;294;7506243;-32
2023/05/07 12:41:58;;;;;;;9.10;6.50;;;;;;;-128.00;-1.00;-1.00;18880;294;7504560;-31
2023/05/07 12:44:25;;;;;;;8.70;7.40;;;;;;;-128.00;-1.00;-1.00;18500;302;7504577;-31
2023/05/07 12:46:51;;;;;;;4.70;4.30;;;;;;;-128.00;-1.00;-1.00;18470;294;7504227;-31
2023/05/07 12:49:18;;;;;;;43.60;16.50;;;;;;;-128.00;-1.00;-1.00;18509;318;7504482;-31